createdAt,value
2018-12-25T00:01:33.407Z,3.16
2018-12-25T00:02:33.274Z,3.05
2018-12-25T00:03:33.312Z,3.12
2018-12-25T00:04:33.327Z,3.01
2018-12-25T00:05:33.360Z,3.13
2018-12-25T00:06:33.441Z,3.13
2018-12-25T00:07:33.414Z,3.13
2018-12-25T00:08:33.308Z,3.08
2018-12-25T00:09:33.333Z,3.13
2018-12-25T00:10:33.327Z,3.13
2018-12-25T00:11:33.352Z,3.16
2018-12-25T00:12:33.283Z,3.11
2018-12-25T00:13:33.384Z,2.95
2018-12-25T00:14:33.335Z,3.05
2018-12-25T00:15:33.363Z,2.95
2018-12-25T00:16:33.349Z,3.06
2018-12-25T00:17:33.363Z,3.05
2018-12-25T00:18:33.363Z,3.03
2018-12-25T00:19:33.380Z,3.09
2018-12-25T00:20:33.482Z,3
2018-12-25T00:21:33.388Z,2.98
2018-12-25T00:22:33.349Z,3.08
2018-12-25T00:23:33.396Z,2.9
2018-12-25T00:24:33.384Z,3.03
2018-12-25T00:25:33.365Z,3.01
2018-12-25T00:26:33.396Z,2.98
2018-12-25T00:27:33.404Z,2.94
2018-12-25T00:28:33.319Z,3.01
2018-12-25T00:29:33.351Z,2.95
2018-12-25T00:30:33.345Z,3.03
2018-12-25T00:31:33.363Z,3
2018-12-25T00:32:33.388Z,2.91
2018-12-25T00:33:33.393Z,3.06
2018-12-25T00:34:33.364Z,2.94
2018-12-25T00:35:33.446Z,2.9
2018-12-25T00:36:33.447Z,2.9
2018-12-25T00:37:33.404Z,2.88
2018-12-25T00:38:33.422Z,2.79
2018-12-25T00:39:33.378Z,2.9
2018-12-25T00:40:33.450Z,2.87
2018-12-25T00:41:33.413Z,2.82
2018-12-25T00:42:33.441Z,2.87
2018-12-25T00:43:33.392Z,2.79
2018-12-25T00:44:33.413Z,2.77
2018-12-25T00:45:33.405Z,2.87
2018-12-25T00:46:33.413Z,2.93
2018-12-25T00:47:33.421Z,2.87
2018-12-25T00:48:33.440Z,2.88
2018-12-25T00:49:33.381Z,2.82
2018-12-25T00:50:33.375Z,2.91
2018-12-25T00:51:33.372Z,2.82
2018-12-25T00:52:33.370Z,2.87
2018-12-25T00:53:33.412Z,2.88
2018-12-25T00:54:33.359Z,2.82
2018-12-25T00:55:33.394Z,2.93
2018-12-25T00:56:33.455Z,2.94
2018-12-25T00:57:33.411Z,2.87
2018-12-25T00:58:33.391Z,2.9
2018-12-25T00:59:33.379Z,2.87
2018-12-25T01:00:33.351Z,2.94
2018-12-25T01:01:33.407Z,2.88
2018-12-25T01:02:33.403Z,2.91
2018-12-25T01:03:33.405Z,2.88
2018-12-25T01:04:33.446Z,2.85
2018-12-25T01:05:33.415Z,2.76
2018-12-25T01:06:33.435Z,2.85
2018-12-25T01:07:33.429Z,2.83
2018-12-25T01:08:33.416Z,2.83
2018-12-25T01:09:33.437Z,2.88
2018-12-25T01:10:33.416Z,2.8
2018-12-25T01:11:33.465Z,2.87
2018-12-25T01:12:33.431Z,2.9
2018-12-25T01:13:33.468Z,2.85
2018-12-25T01:14:33.444Z,2.8
2018-12-25T01:15:33.477Z,2.9
2018-12-25T01:16:33.419Z,2.88
2018-12-25T01:17:33.438Z,2.82
2018-12-25T01:18:33.470Z,2.85
2018-12-25T01:19:33.439Z,2.93
2018-12-25T01:20:33.432Z,2.95
2018-12-25T01:21:33.440Z,2.93
2018-12-25T01:22:33.431Z,2.88
2018-12-25T01:23:33.503Z,2.88
2018-12-25T01:24:33.476Z,2.9
2018-12-25T01:25:33.457Z,2.88
2018-12-25T01:26:33.563Z,2.88
2018-12-25T01:27:33.437Z,2.95
2018-12-25T01:28:33.461Z,2.98
2018-12-25T01:29:33.506Z,2.98
2018-12-25T01:30:33.474Z,2.87
2018-12-25T01:31:33.484Z,2.83
2018-12-25T01:32:33.466Z,2.87
2018-12-25T01:33:33.469Z,2.88
2018-12-25T01:34:33.486Z,2.82
2018-12-25T01:35:33.500Z,2.8
2018-12-25T01:36:33.474Z,2.82
2018-12-25T01:37:33.483Z,2.82
2018-12-25T01:38:33.486Z,2.83
2018-12-25T01:39:33.574Z,2.93
2018-12-25T01:40:33.475Z,2.83
2018-12-25T01:41:33.535Z,2.77
2018-12-25T01:42:33.464Z,2.83
2018-12-25T01:43:33.482Z,2.83
2018-12-25T01:44:33.473Z,2.91
2018-12-25T01:45:33.463Z,2.91
2018-12-25T01:46:33.495Z,2.73
2018-12-25T01:47:33.495Z,2.9
2018-12-25T01:48:33.463Z,2.79
2018-12-25T01:49:37.734Z,2.83
2018-12-25T01:50:33.515Z,2.95
2018-12-25T01:51:33.475Z,2.93
2018-12-25T01:52:33.492Z,2.88
2018-12-25T01:53:33.510Z,2.93
2018-12-25T01:54:33.536Z,2.97
2018-12-25T01:55:33.491Z,2.85
2018-12-25T01:56:33.493Z,2.91
2018-12-25T01:57:33.487Z,2.87
2018-12-25T01:58:33.475Z,2.94
2018-12-25T01:59:33.514Z,2.97
2018-12-25T02:00:33.486Z,2.91
2018-12-25T02:01:33.505Z,2.94
2018-12-25T02:02:33.491Z,3
2018-12-25T02:03:33.610Z,2.93
2018-12-25T02:04:33.474Z,2.85
2018-12-25T02:05:33.475Z,2.98
2018-12-25T02:06:33.546Z,2.9
2018-12-25T02:07:33.504Z,2.91
2018-12-25T02:08:33.522Z,2.82
2018-12-25T02:09:33.503Z,2.85
2018-12-25T02:10:33.506Z,2.87
2018-12-25T02:11:33.543Z,2.87
2018-12-25T02:12:33.527Z,2.91
2018-12-25T02:13:33.559Z,2.87
2018-12-25T02:14:33.539Z,2.9
2018-12-25T02:15:33.502Z,2.85
2018-12-25T02:16:33.510Z,2.87
2018-12-25T02:17:33.527Z,2.9
2018-12-25T02:18:33.574Z,2.93
2018-12-25T02:19:40.130Z,2.93
2018-12-25T02:20:33.558Z,2.94
2018-12-25T02:21:33.551Z,2.85
2018-12-25T02:22:33.592Z,2.83
2018-12-25T02:23:33.567Z,2.88
2018-12-25T02:24:33.534Z,2.73
2018-12-25T02:25:33.542Z,2.82
2018-12-25T02:26:33.538Z,2.83
2018-12-25T02:27:33.545Z,2.87
2018-12-25T02:28:33.574Z,2.9
2018-12-25T02:29:33.567Z,2.93
2018-12-25T02:30:33.574Z,2.82
2018-12-25T02:31:33.524Z,2.72
2018-12-25T02:32:33.554Z,2.75
2018-12-25T02:33:33.700Z,2.8
2018-12-25T02:34:34.261Z,2.73
2018-12-25T02:35:33.658Z,2.82
2018-12-25T02:36:33.540Z,2.85
2018-12-25T02:37:34.162Z,2.87
2018-12-25T02:38:33.578Z,2.93
2018-12-25T02:39:40.819Z,2.9
2018-12-25T02:40:33.572Z,2.98
2018-12-25T02:48:01.380Z,3.03
2018-12-25T02:48:14.013Z,3
2018-12-25T02:49:14.042Z,3
2018-12-25T02:50:14.024Z,2.93
2018-12-25T02:51:13.952Z,2.83
2018-12-25T02:52:13.970Z,2.91
2018-12-25T02:53:14.029Z,2.88
2018-12-25T02:54:14.009Z,2.98
2018-12-25T02:55:13.988Z,2.98
2018-12-25T02:56:14.022Z,2.93
2018-12-25T02:57:13.996Z,3.06
2018-12-25T02:58:13.937Z,2.91
2018-12-25T02:59:14.003Z,3.03
2018-12-25T03:00:14.041Z,2.98
2018-12-25T03:01:14.018Z,3.03
2018-12-25T03:02:14.002Z,3.01
2018-12-25T03:03:14.072Z,2.91
2018-12-25T03:04:14.131Z,3.08
2018-12-25T03:05:14.095Z,2.94
2018-12-25T03:06:14.031Z,2.95
2018-12-25T03:07:14.059Z,3.01
2018-12-25T03:08:14.120Z,2.97
2018-12-25T03:09:14.035Z,3.08
2018-12-25T03:10:14.046Z,2.98
2018-12-25T03:11:14.075Z,3.12
2018-12-25T03:12:14.083Z,3.05
2018-12-25T03:13:14.035Z,3.09
2018-12-25T03:14:14.139Z,3.05
2018-12-25T03:15:14.057Z,3
2018-12-25T03:16:14.041Z,2.98
2018-12-25T03:17:14.019Z,3.06
2018-12-25T03:18:14.057Z,3.01
2018-12-25T03:19:14.033Z,3.05
2018-12-25T03:20:14.069Z,3.05
2018-12-25T03:21:14.035Z,3.06
2018-12-25T03:22:13.994Z,3.08
2018-12-25T03:23:14.050Z,2.98
2018-12-25T03:24:14.032Z,3.09
2018-12-25T03:25:14.051Z,2.97
2018-12-25T03:26:14.030Z,3.08
2018-12-25T03:27:14.062Z,3.12
2018-12-25T03:28:14.056Z,3.16
2018-12-25T03:29:14.084Z,3.08
2018-12-25T03:30:14.303Z,3.08
2018-12-25T03:31:14.087Z,3.12
2018-12-25T03:32:14.261Z,3.05
2018-12-25T03:33:14.115Z,3.09
2018-12-25T03:34:14.058Z,3.15
2018-12-25T03:35:14.075Z,3.13
2018-12-25T03:36:14.046Z,3.12
2018-12-25T03:37:14.066Z,3.09
2018-12-25T03:38:14.031Z,3.05
2018-12-25T03:39:14.013Z,3.01
2018-12-25T03:40:14.060Z,3.05
2018-12-25T03:41:14.067Z,3.03
2018-12-25T03:42:14.073Z,2.95
2018-12-25T03:43:14.035Z,3.01
2018-12-25T03:44:14.076Z,2.95
2018-12-25T03:45:14.086Z,2.94
2018-12-25T03:46:14.126Z,3.06
2018-12-25T03:47:14.092Z,2.98
2018-12-25T03:48:14.149Z,3
2018-12-25T03:49:14.170Z,3.03
2018-12-25T03:50:20.730Z,3.08
2018-12-25T03:51:15.112Z,3.01
2018-12-25T03:52:14.216Z,3
2018-12-25T03:53:14.146Z,2.95
2018-12-25T03:54:14.142Z,2.98
2018-12-25T03:55:14.321Z,2.97
2018-12-25T03:56:14.203Z,2.94
2018-12-25T03:57:14.093Z,3.06
2018-12-25T03:58:14.065Z,3
2018-12-25T03:59:14.117Z,2.98
2018-12-25T04:00:14.108Z,2.95
2018-12-25T04:01:14.147Z,2.95
2018-12-25T04:02:14.125Z,2.97
2018-12-25T04:03:14.216Z,2.88
2018-12-25T04:04:14.143Z,2.87
2018-12-25T04:05:14.124Z,2.91
2018-12-25T04:06:14.086Z,2.97
2018-12-25T04:07:14.072Z,3
2018-12-25T04:13:53.435Z,3.12
2018-12-25T04:14:53.444Z,3.15
2018-12-25T04:15:53.425Z,3.13
2018-12-25T04:16:53.405Z,3.18
2018-12-25T04:17:53.388Z,3.33
2018-12-25T04:18:53.434Z,3.16
2018-12-25T04:19:53.537Z,3.22
2018-12-25T04:20:53.413Z,3.3
2018-12-25T04:21:53.435Z,3.16
2018-12-25T04:22:53.414Z,3.16
2018-12-25T04:23:53.395Z,3.26
2018-12-25T04:24:53.404Z,3.27
2018-12-25T04:25:53.434Z,3.24
2018-12-25T04:26:53.455Z,3.26
2018-12-25T04:27:53.464Z,3.24
2018-12-25T04:28:53.498Z,3.21
2018-12-25T04:29:53.426Z,3.13
2018-12-25T04:30:53.450Z,3.19
2018-12-25T04:31:53.454Z,3.22
2018-12-25T04:32:53.469Z,3.3
2018-12-25T04:33:53.434Z,3.22
2018-12-25T04:34:53.445Z,3.18
2018-12-25T04:35:53.452Z,3.19
2018-12-25T04:36:53.468Z,3.18
2018-12-25T04:37:53.461Z,3.27
2018-12-25T04:38:53.460Z,3.15
2018-12-25T04:39:53.436Z,3.13
2018-12-25T04:40:53.522Z,2.97
2018-12-25T04:41:53.505Z,3.01
2018-12-25T04:42:53.564Z,3.05
2018-12-25T04:43:53.425Z,2.93
2018-12-25T04:44:53.497Z,2.9
2018-12-25T04:45:53.465Z,3.01
2018-12-25T04:46:53.429Z,2.98
2018-12-25T04:47:53.507Z,3.13
2018-12-25T04:48:55.433Z,3.09
2018-12-25T04:49:53.472Z,3.09
2018-12-25T04:50:53.479Z,3.06
2018-12-25T04:51:53.446Z,3.01
2018-12-25T04:52:53.494Z,3.01
2018-12-25T04:53:53.454Z,2.98
2018-12-25T04:54:53.484Z,2.91
2018-12-25T04:55:53.492Z,3.05
2018-12-25T04:56:53.474Z,2.97
2018-12-25T04:57:53.481Z,2.94
2018-12-25T04:58:53.506Z,3.01
2018-12-25T04:59:53.535Z,2.93
2018-12-25T05:00:53.555Z,2.88
2018-12-25T05:01:53.532Z,2.93
2018-12-25T05:02:53.529Z,2.85
2018-12-25T05:03:53.545Z,2.94
2018-12-25T05:04:53.536Z,2.91
2018-12-25T05:05:53.491Z,2.9
2018-12-25T05:06:53.515Z,3.03
2018-12-25T05:07:53.502Z,2.97
2018-12-25T05:08:53.503Z,2.88
2018-12-25T05:09:53.539Z,2.98
2018-12-25T05:10:53.502Z,2.95
2018-12-25T05:11:53.560Z,3.01
2018-12-25T05:12:53.524Z,2.97
2018-12-25T05:13:53.535Z,3.05
2018-12-25T05:14:53.517Z,3.05
2018-12-25T05:15:53.486Z,2.93
2018-12-25T05:16:53.542Z,2.98
2018-12-25T05:17:53.568Z,3.03
2018-12-25T05:18:53.543Z,3.08
2018-12-25T05:19:53.538Z,3.12
2018-12-25T05:20:53.518Z,3.03
2018-12-25T05:21:53.512Z,3.05
2018-12-25T05:28:31.390Z,3.01
2018-12-25T05:29:31.302Z,3.01
2018-12-25T05:30:31.312Z,3.03
2018-12-25T05:31:31.299Z,3.06
2018-12-25T05:32:31.297Z,3.09
2018-12-25T05:33:31.320Z,3.09
2018-12-25T05:34:31.403Z,3.06
2018-12-25T05:35:31.294Z,3.09
2018-12-25T05:36:31.314Z,3.16
2018-12-25T05:37:31.335Z,3.03
2018-12-25T05:38:31.358Z,2.98
2018-12-25T05:39:31.334Z,3.01
2018-12-25T05:40:31.313Z,3
2018-12-25T05:41:31.357Z,2.98
2018-12-25T05:42:31.321Z,2.98
2018-12-25T05:43:31.403Z,2.95
2018-12-25T05:44:31.290Z,3.09
2018-12-25T05:45:31.329Z,3
2018-12-25T05:46:31.387Z,3
2018-12-25T05:47:31.348Z,2.94
2018-12-25T05:48:31.344Z,3.09
2018-12-25T05:49:31.370Z,3.05
2018-12-25T05:50:31.347Z,3.01
2018-12-25T05:51:31.348Z,3
2018-12-25T05:52:31.366Z,3.11
2018-12-25T05:53:31.338Z,3.09
2018-12-25T05:54:31.338Z,3.05
2018-12-25T05:55:31.385Z,3
2018-12-25T05:56:31.326Z,3.03
2018-12-25T05:57:31.818Z,3.08
2018-12-25T05:58:36.489Z,2.98
2018-12-25T05:59:31.340Z,3.03
2018-12-25T06:00:31.371Z,2.87
2018-12-25T06:01:31.360Z,2.91
2018-12-25T06:02:31.358Z,2.95
2018-12-25T06:03:31.373Z,3
2018-12-25T06:04:34.776Z,3.01
2018-12-25T06:05:31.505Z,2.97
2018-12-25T06:06:31.384Z,3
2018-12-25T06:07:35.058Z,3
2018-12-25T06:08:31.490Z,3.06
2018-12-25T06:09:31.413Z,2.93
2018-12-25T06:16:57.047Z,3.03
2018-12-25T06:17:09.659Z,2.98
2018-12-25T06:18:09.676Z,2.97
2018-12-25T06:19:09.686Z,3.05
2018-12-25T06:20:09.731Z,3.03
2018-12-25T06:21:09.713Z,3.08
2018-12-25T06:22:09.711Z,2.97
2018-12-25T06:23:09.710Z,3.03
2018-12-25T06:24:09.692Z,3.11
2018-12-25T06:25:09.666Z,3.05
2018-12-25T06:26:09.822Z,3.12
2018-12-25T06:27:09.674Z,3.01
2018-12-25T06:28:09.702Z,2.97
2018-12-25T06:29:09.700Z,3
2018-12-25T06:30:09.739Z,3.01
2018-12-25T06:31:09.708Z,3.01
2018-12-25T06:32:09.711Z,3.01
2018-12-25T06:33:09.732Z,3.09
2018-12-25T06:34:09.825Z,3.03
2018-12-25T06:35:09.832Z,3.01
2018-12-25T06:36:09.728Z,2.91
2018-12-25T06:37:09.711Z,3.01
2018-12-25T06:38:09.707Z,2.95
2018-12-25T06:39:09.702Z,2.93
2018-12-25T06:40:09.811Z,2.94
2018-12-25T06:41:09.715Z,2.95
2018-12-25T06:42:09.745Z,2.97
2018-12-25T06:43:09.687Z,2.98
2018-12-25T06:44:09.764Z,2.95
2018-12-25T06:48:39.178Z,2.98
2018-12-25T06:49:39.142Z,3.09
2018-12-25T06:50:39.163Z,3.06
2018-12-25T06:51:39.212Z,3
2018-12-25T06:52:39.152Z,2.94
2018-12-25T06:53:39.197Z,2.97
2018-12-25T06:54:39.458Z,3.03
2018-12-25T06:55:39.144Z,3.05
2018-12-25T06:56:39.162Z,2.98
2018-12-25T06:57:39.209Z,2.97
2018-12-25T06:58:39.233Z,2.95
2018-12-25T06:59:39.179Z,3.01
2018-12-25T07:00:39.192Z,3.05
2018-12-25T07:01:39.185Z,3.03
2018-12-25T07:06:56.193Z,3.11
2018-12-25T07:07:08.935Z,3.13
2018-12-25T07:08:08.893Z,3.13
2018-12-25T07:09:08.889Z,3.11
2018-12-25T07:10:08.979Z,3.21
2018-12-25T07:11:08.989Z,3.15
2018-12-25T07:12:08.896Z,3.15
2018-12-25T07:13:08.933Z,3.15
2018-12-25T07:14:08.911Z,3.16
2018-12-25T07:15:08.980Z,3.19
2018-12-25T07:16:08.919Z,3.3
2018-12-25T07:17:08.843Z,3.19
2018-12-25T07:24:35.764Z,3.21
2018-12-25T07:24:48.327Z,3.18
2018-12-25T07:25:48.418Z,3.16
2018-12-25T07:26:48.335Z,3.18
2018-12-25T07:27:48.306Z,3.13
2018-12-25T07:28:48.320Z,3.18
2018-12-25T07:29:50.283Z,3.13
2018-12-25T07:30:48.336Z,3.26
2018-12-25T07:31:48.366Z,3.18
2018-12-25T07:32:48.387Z,3.09
2018-12-25T07:33:48.357Z,3.08
2018-12-25T07:34:48.350Z,3.09
2018-12-25T07:35:48.328Z,3.12
2018-12-25T07:36:48.341Z,3.06
2018-12-25T07:37:48.359Z,3.12
2018-12-25T07:38:48.336Z,3.16
2018-12-25T07:39:48.455Z,3.13
2018-12-25T07:40:48.415Z,3.19
2018-12-25T07:41:48.409Z,3.22
2018-12-25T07:42:48.381Z,3.19
2018-12-25T07:43:48.318Z,3.12
2018-12-25T07:44:48.351Z,3.13
2018-12-25T07:49:17.753Z,3.09
2018-12-25T07:50:17.715Z,3.24
2018-12-25T07:51:23.743Z,3.27
2018-12-25T07:52:17.720Z,3.21
2018-12-25T07:53:17.734Z,2.98
2018-12-25T07:54:17.721Z,3.06
2018-12-25T07:55:17.745Z,3.05
2018-12-25T07:59:47.285Z,3.11
2018-12-25T08:00:47.301Z,3.08
2018-12-25T08:01:47.270Z,3.19
2018-12-25T08:02:47.292Z,3.13
2018-12-25T08:03:47.515Z,3.19
2018-12-25T08:04:47.305Z,3.09
2018-12-25T08:05:47.234Z,3.03
2018-12-25T08:06:47.295Z,3.16
2018-12-25T08:07:47.350Z,3.26
2018-12-25T08:08:47.295Z,3.16
2018-12-25T08:09:47.310Z,3.21
2018-12-25T08:10:47.264Z,3.22
2018-12-25T08:11:47.390Z,3.31
2018-12-25T08:12:47.270Z,3.26
2018-12-25T08:13:47.288Z,3.26
2018-12-25T08:14:47.291Z,3.26
2018-12-25T08:15:47.264Z,3.22
2018-12-25T08:16:47.257Z,3.21
2018-12-25T08:17:47.277Z,3.33
2018-12-25T08:18:47.282Z,3.36
2018-12-25T08:19:47.350Z,3.33
2018-12-25T08:20:47.307Z,3.31
2018-12-25T08:21:47.274Z,3.36
2018-12-25T08:22:47.306Z,3.29
2018-12-25T08:23:47.311Z,3.22
2018-12-25T08:24:47.373Z,3.26
2018-12-25T08:25:47.299Z,3.24
2018-12-25T08:26:47.308Z,3.29
2018-12-25T08:27:47.266Z,3.31
2018-12-25T08:28:47.271Z,3.34
2018-12-25T08:29:47.306Z,3.34
2018-12-25T08:30:47.283Z,3.18
2018-12-25T08:31:47.331Z,3.31
2018-12-25T08:32:47.277Z,3.22
2018-12-25T08:33:47.272Z,3.31
2018-12-25T08:34:47.311Z,3.34
2018-12-25T08:35:47.299Z,3.34
2018-12-25T08:36:47.327Z,3.43
2018-12-25T08:37:47.337Z,3.41
2018-12-25T08:38:47.326Z,3.4
2018-12-25T08:39:47.346Z,3.34
2018-12-25T08:40:47.296Z,3.34
2018-12-25T08:41:47.376Z,3.45
2018-12-25T08:42:47.325Z,3.48
2018-12-25T08:43:47.331Z,3.5
2018-12-25T08:44:47.357Z,3.52
2018-12-25T08:45:47.321Z,3.53
2018-12-25T08:46:47.370Z,3.46
2018-12-25T08:47:47.402Z,3.52
2018-12-25T08:48:47.355Z,3.56
2018-12-25T08:49:47.366Z,3.55
2018-12-25T08:55:04.242Z,3.46
2018-12-25T08:55:17.013Z,3.56
2018-12-25T08:56:16.894Z,3.59
2018-12-25T08:57:16.909Z,3.52
2018-12-25T08:58:16.866Z,3.55
2018-12-25T08:59:16.949Z,3.55
2018-12-25T09:00:17.867Z,3.59
2018-12-25T09:01:16.882Z,3.68
2018-12-25T09:02:16.913Z,3.66
2018-12-25T09:03:16.920Z,3.81
2018-12-25T09:04:16.838Z,3.77
2018-12-25T09:05:16.912Z,3.74
2018-12-25T09:06:16.880Z,3.7
2018-12-25T09:07:16.895Z,3.76
2018-12-25T09:08:16.931Z,3.74
2018-12-25T09:09:16.887Z,3.76
2018-12-25T09:10:16.909Z,3.73
2018-12-25T09:11:16.954Z,3.73
2018-12-25T09:12:19.022Z,3.78
2018-12-25T09:13:16.955Z,3.71
2018-12-25T09:14:16.924Z,3.73
2018-12-25T09:15:16.976Z,3.77
2018-12-25T09:16:16.906Z,3.77
2018-12-25T09:17:16.877Z,3.82
2018-12-25T09:18:16.959Z,3.85
2018-12-25T09:19:16.926Z,3.95
2018-12-25T09:20:17.007Z,3.77
2018-12-25T09:21:16.974Z,3.82
2018-12-25T09:22:16.976Z,3.78
2018-12-25T09:23:16.946Z,3.84
2018-12-25T09:24:16.912Z,3.76
2018-12-25T09:25:17.027Z,3.78
2018-12-25T09:26:16.898Z,3.81
2018-12-25T09:27:16.943Z,3.92
2018-12-25T09:28:16.944Z,3.76
2018-12-25T09:29:16.939Z,3.84
2018-12-25T09:30:17.606Z,3.96
2018-12-25T09:31:18.035Z,3.86
2018-12-25T09:32:17.115Z,4.03
2018-12-25T09:33:16.928Z,3.91
2018-12-25T09:34:16.962Z,4
2018-12-25T09:35:17.060Z,4.03
2018-12-25T09:36:17.052Z,4.12
2018-12-25T09:37:16.955Z,4.09
2018-12-25T09:38:17.059Z,4.03
2018-12-25T09:39:16.993Z,3.96
2018-12-25T09:40:17.040Z,4.09
2018-12-25T09:41:16.979Z,3.95
2018-12-25T09:42:17.040Z,4.12
2018-12-25T09:43:16.954Z,3.89
2018-12-25T09:44:16.928Z,4.12
2018-12-25T09:45:16.997Z,4.12
2018-12-25T09:46:17.009Z,4.09
2018-12-25T09:47:16.958Z,4.1
2018-12-25T09:48:19.442Z,4.22
2018-12-25T09:49:17.254Z,4.14
2018-12-25T09:50:17.024Z,4.1
2018-12-25T09:57:44.482Z,4.06
2018-12-25T09:57:57.057Z,4.16
2018-12-25T09:58:57.585Z,4.18
2018-12-25T09:59:57.433Z,4.32
2018-12-25T10:00:57.080Z,4.28
2018-12-25T10:01:57.238Z,4.31
2018-12-25T10:02:57.061Z,4.18
2018-12-25T10:03:57.067Z,4.27
2018-12-25T10:04:57.162Z,4.1
2018-12-25T10:05:57.266Z,4.27
2018-12-25T10:07:07.094Z,4.32
2018-12-25T10:07:57.092Z,4.3
2018-12-25T10:08:57.072Z,4.28
2018-12-25T10:09:57.104Z,4.32
2018-12-25T10:10:57.685Z,4.36
2018-12-25T10:11:58.143Z,4.16
2018-12-25T10:12:57.103Z,4.21
2018-12-25T10:13:57.088Z,4.28
2018-12-25T10:14:57.139Z,4.25
2018-12-25T10:15:57.104Z,4.16
2018-12-25T10:16:57.171Z,4.2
2018-12-25T10:17:59.603Z,4.31
2018-12-25T10:18:57.371Z,4.36
2018-12-25T10:19:57.131Z,4.43
2018-12-25T10:20:57.132Z,4.36
2018-12-25T10:22:02.851Z,4.43
2018-12-25T10:22:57.102Z,4.38
2018-12-25T10:23:57.379Z,4.27
2018-12-25T10:24:57.497Z,4.31
2018-12-25T10:25:59.044Z,4.4
2018-12-25T10:26:57.140Z,4.46
2018-12-25T10:27:57.110Z,4.45
2018-12-25T10:28:57.832Z,4.45
2018-12-25T10:29:57.465Z,4.39
2018-12-25T10:30:57.152Z,4.48
2018-12-25T10:31:57.122Z,4.43
2018-12-25T10:32:57.143Z,4.43
2018-12-25T10:33:57.485Z,4.38
2018-12-25T10:34:57.149Z,4.4
2018-12-25T10:35:57.135Z,4.42
2018-12-25T10:36:57.155Z,4.5
2018-12-25T10:37:57.128Z,4.6
2018-12-25T10:38:57.140Z,4.58
2018-12-25T10:39:57.237Z,4.6
2018-12-25T10:49:34.875Z,4.63
2018-12-25T10:49:49.196Z,4.67
2018-12-25T10:50:47.784Z,4.5
2018-12-25T10:51:47.529Z,4.5
2018-12-25T10:52:47.586Z,4.53
2018-12-25T10:53:48.334Z,4.48
2018-12-25T10:54:48.242Z,4.53
2018-12-25T10:55:47.641Z,4.64
2018-12-25T10:56:47.521Z,4.61
2018-12-25T10:57:47.613Z,4.61
2018-12-25T10:58:47.575Z,4.68
2018-12-25T10:59:48.410Z,4.7
2018-12-25T11:00:47.618Z,4.61
2018-12-25T11:01:47.496Z,4.58
2018-12-25T11:02:47.470Z,4.57
2018-12-25T11:07:18.963Z,4.61
2018-12-25T11:08:18.841Z,4.57
2018-12-25T11:09:20.051Z,4.64
2018-12-25T11:10:18.204Z,4.56
2018-12-25T11:11:17.979Z,4.61
2018-12-25T11:12:17.883Z,4.67
2018-12-25T11:13:18.087Z,4.57
2018-12-25T11:14:18.209Z,4.61
2018-12-25T11:15:18.144Z,4.84
2018-12-25T11:16:17.919Z,4.7
2018-12-25T11:17:18.053Z,4.6
2018-12-25T11:18:18.503Z,4.6
2018-12-25T11:19:18.585Z,4.66
2018-12-25T11:20:17.983Z,4.67
2018-12-25T11:21:18.178Z,4.6
2018-12-25T11:22:25.775Z,4.67
2018-12-25T11:23:18.046Z,4.68
2018-12-25T11:24:17.940Z,4.78
2018-12-25T11:25:17.907Z,4.71
2018-12-25T11:26:18.087Z,4.6
2018-12-25T11:27:18.982Z,4.7
2018-12-25T11:28:18.033Z,4.64
2018-12-25T11:29:17.907Z,4.68
2018-12-25T11:30:17.943Z,4.68
2018-12-25T11:31:18.007Z,4.6
2018-12-25T11:32:17.993Z,4.64
2018-12-25T11:33:18.014Z,4.58
2018-12-25T11:34:17.998Z,4.68
2018-12-25T11:35:19.203Z,4.78
2018-12-25T11:36:17.971Z,4.76
2018-12-25T11:37:17.996Z,4.66
2018-12-25T11:38:18.045Z,4.76
2018-12-25T11:39:18.003Z,4.78
2018-12-25T11:40:18.238Z,4.83
2018-12-25T11:41:18.045Z,4.92
2018-12-25T11:42:18.058Z,4.86
2018-12-25T11:43:22.617Z,4.82
2018-12-25T11:44:18.088Z,4.75
2018-12-25T11:45:18.422Z,4.83
2018-12-25T11:46:17.969Z,4.83
2018-12-25T11:47:17.980Z,4.9
2018-12-25T11:50:24.926Z,5
2018-12-25T11:50:37.712Z,4.95
2018-12-25T11:51:37.593Z,4.92
2018-12-25T11:52:37.579Z,4.86
2018-12-25T11:53:37.574Z,4.78
2018-12-25T11:54:37.928Z,4.78
2018-12-25T11:55:38.107Z,4.75
2018-12-25T11:56:37.639Z,4.82
2018-12-25T11:57:37.613Z,4.87
2018-12-25T11:58:37.753Z,4.86
2018-12-25T11:59:37.761Z,4.94
2018-12-25T12:00:37.624Z,4.94
2018-12-25T12:01:37.628Z,4.84
2018-12-25T12:02:37.582Z,4.87
2018-12-25T12:03:37.628Z,4.82
2018-12-25T12:04:37.672Z,4.79
2018-12-25T12:05:38.246Z,4.78
2018-12-25T12:06:37.790Z,4.78
2018-12-25T12:07:38.050Z,4.78
2018-12-25T12:08:37.790Z,4.78
2018-12-25T12:09:38.055Z,4.78
2018-12-25T12:10:37.626Z,4.82
2018-12-25T12:11:37.633Z,4.84
2018-12-25T12:12:37.639Z,4.89
2018-12-25T12:13:37.640Z,4.83
2018-12-25T12:14:37.613Z,4.84
2018-12-25T12:15:37.606Z,4.89
2018-12-25T12:16:37.761Z,4.87
2018-12-25T12:17:37.606Z,4.82
2018-12-25T12:18:37.614Z,4.92
2018-12-25T12:19:37.684Z,4.76
2018-12-25T12:20:37.625Z,4.79
2018-12-25T12:21:37.621Z,4.84
2018-12-25T12:22:43.276Z,4.84
2018-12-25T12:23:37.725Z,4.87
2018-12-25T12:24:37.781Z,4.9
2018-12-25T12:25:37.733Z,4.89
2018-12-25T12:30:06.618Z,4.87
2018-12-25T12:31:06.580Z,4.78
2018-12-25T12:32:06.577Z,4.84
2018-12-25T12:36:36.564Z,4.7
2018-12-25T12:37:35.690Z,4.68
2018-12-25T12:38:36.696Z,4.67
2018-12-25T12:39:37.845Z,4.66
2018-12-25T12:40:35.639Z,4.6
2018-12-25T12:41:35.571Z,4.71
2018-12-25T12:42:35.725Z,4.7
2018-12-25T12:43:35.694Z,4.78
2018-12-25T12:44:35.686Z,4.75
2018-12-25T12:45:35.642Z,4.61
2018-12-25T12:46:35.604Z,4.71
2018-12-25T12:47:35.715Z,4.58
2018-12-25T12:48:35.664Z,4.61
2018-12-25T12:49:37.430Z,4.6
2018-12-25T12:50:35.634Z,4.57
2018-12-25T12:51:35.632Z,4.48
2018-12-25T12:52:35.657Z,4.67
2018-12-25T12:53:35.707Z,4.75
2018-12-25T12:54:35.686Z,4.61
2018-12-25T12:55:35.654Z,4.74
2018-12-25T12:56:35.624Z,4.78
2018-12-25T12:57:36.668Z,4.7
2018-12-25T12:58:35.685Z,4.64
2018-12-25T12:59:35.757Z,4.7
2018-12-25T13:00:35.706Z,4.58
2018-12-25T13:01:35.782Z,4.61
2018-12-25T13:02:35.650Z,4.64
2018-12-25T13:03:35.684Z,4.6
2018-12-25T13:04:35.686Z,4.63
2018-12-25T13:05:35.761Z,4.74
2018-12-25T13:06:35.753Z,4.74
2018-12-25T13:07:35.611Z,4.78
2018-12-25T13:08:35.676Z,4.66
2018-12-25T13:09:35.681Z,4.52
2018-12-25T13:10:35.653Z,4.45
2018-12-25T13:11:35.640Z,4.6
2018-12-25T13:12:35.666Z,4.56
2018-12-25T13:13:35.784Z,4.57
2018-12-25T13:14:35.664Z,4.53
2018-12-25T13:15:35.731Z,4.66
2018-12-25T13:16:35.695Z,4.64
2018-12-25T13:17:35.715Z,4.61
2018-12-25T13:18:35.731Z,4.61
2018-12-25T13:19:35.687Z,4.6
2018-12-25T13:20:35.697Z,4.61
2018-12-25T13:21:35.723Z,4.58
2018-12-25T13:22:35.708Z,4.71
2018-12-25T13:23:35.761Z,4.66
2018-12-25T13:24:35.700Z,4.64
2018-12-25T13:25:35.696Z,4.76
2018-12-25T13:26:35.664Z,4.78
2018-12-25T13:27:35.711Z,4.76
2018-12-25T13:28:35.743Z,4.74
2018-12-25T13:29:35.701Z,4.75
2018-12-25T13:30:35.783Z,4.84
2018-12-25T13:31:35.761Z,4.83
2018-12-25T13:32:35.749Z,4.75
2018-12-25T13:33:35.766Z,4.83
2018-12-25T13:34:36.130Z,4.79
2018-12-25T13:35:35.695Z,4.76
2018-12-25T13:36:35.678Z,4.71
2018-12-25T13:37:35.672Z,4.68
2018-12-25T13:38:35.691Z,4.66
2018-12-25T13:39:35.681Z,4.63
2018-12-25T13:40:35.747Z,4.63
2018-12-25T13:41:35.711Z,4.75
2018-12-25T13:42:35.737Z,4.75
2018-12-25T13:43:35.712Z,4.71
2018-12-25T13:44:35.758Z,4.74
2018-12-25T13:45:35.753Z,4.67
2018-12-25T13:46:35.762Z,4.68
2018-12-25T13:47:35.752Z,4.7
2018-12-25T13:48:35.748Z,4.71
2018-12-25T13:49:35.713Z,4.78
2018-12-25T13:50:35.699Z,4.75
2018-12-25T13:51:35.730Z,4.76
2018-12-25T13:52:35.734Z,4.78
2018-12-25T13:53:35.741Z,4.67
2018-12-25T13:54:35.724Z,4.71
2018-12-25T13:55:35.705Z,4.7
2018-12-25T13:56:35.731Z,4.78
2018-12-25T13:57:35.898Z,4.7
2018-12-25T13:58:35.793Z,4.74
2018-12-25T13:59:35.809Z,4.75
2018-12-25T14:00:35.838Z,4.83
2018-12-25T14:01:35.747Z,4.71
2018-12-25T14:02:53.023Z,4.87
2018-12-25T14:03:51.981Z,4.9
2018-12-25T14:05:02.289Z,4.94
2018-12-25T14:05:50.748Z,4.79
2018-12-25T14:06:52.175Z,4.79
2018-12-25T14:07:43.456Z,4.76
2018-12-25T14:09:19.088Z,4.78
2018-12-25T14:10:19.108Z,4.78
2018-12-25T14:11:19.135Z,4.78
2018-12-25T14:12:19.384Z,4.61
2018-12-25T14:13:35.641Z,4.61
2018-12-25T14:14:25.182Z,4.71
2018-12-25T14:15:17.202Z,4.76
2018-12-25T14:16:18.154Z,4.78
2018-12-25T14:22:59.895Z,4.74
2018-12-25T14:23:59.927Z,4.64
2018-12-25T14:24:59.867Z,4.76
2018-12-25T14:25:59.918Z,4.57
2018-12-25T14:26:59.886Z,4.63
2018-12-25T14:27:59.888Z,4.63
2018-12-25T14:28:59.896Z,4.57
2018-12-25T14:29:59.876Z,4.57
2018-12-25T14:30:59.875Z,4.6
2018-12-25T14:31:59.862Z,4.57
2018-12-25T14:32:59.898Z,4.66
2018-12-25T14:33:59.834Z,4.61
2018-12-25T14:34:59.837Z,4.6
2018-12-25T14:35:59.824Z,4.66
2018-12-25T14:36:59.918Z,4.64
2018-12-25T14:37:59.915Z,4.57
2018-12-25T14:38:59.865Z,4.5
2018-12-25T14:39:59.826Z,4.6
2018-12-25T14:40:59.845Z,4.61